sensor_id;sensor_type;location;lat;lon;timestamp;P1;durP1;ratioP1;P2;durP2;ratioP2
6665;SDS011;3369;49.906;8.598;2023-04-30T00:00:14;5.13;;;4.73;;
6665;SDS011;3369;49.906;8.598;2023-04-30T00:02:40;4.97;;;4.57;;
6665;SDS011;3369;49.906;8.598;2023-04-30T00:05:05;5.40;;;4.70;;
6665;SDS011;3369;49.906;8.598;2023-04-30T00:07:31;5.03;;;4.63;;
6665;SDS011;3369;49.906;8.598;2023-04-30T00:09:57;5.40;;;4.90;;
6665;SDS011;3369;49.906;8.598;2023-04-30T00:12:23;4.73;;;4.33;;
6665;SDS011;3369;49.906;8.598;2023-04-30T00:14:49;4.97;;;4.57;;
6665;SDS011;3369;49.906;8.598;2023-04-30T00:17:15;4.83;;;4.40;;
6665;SDS011;3369;49.906;8.598;2023-04-30T00:19:41;5.23;;;4.83;;
6665;SDS011;3369;49.906;8.598;2023-04-30T00:22:07;5.00;;;4.60;;
6665;SDS011;3369;49.906;8.598;2023-04-30T00:24:32;4.93;;;4.53;;
6665;SDS011;3369;49.906;8.598;2023-04-30T00:26:58;5.17;;;4.77;;
6665;SDS011;3369;49.906;8.598;2023-04-30T00:29:24;5.40;;;4.90;;
6665;SDS011;3369;49.906;8.598;2023-04-30T00:31:50;5.47;;;5.07;;
6665;SDS011;3369;49.906;8.598;2023-04-30T00:34:15;5.80;;;5.30;;
6665;SDS011;3369;49.906;8.598;2023-04-30T00:36:41;5.50;;;5.00;;
6665;SDS011;3369;49.906;8.598;2023-04-30T00:39:06;4.97;;;4.57;;
6665;SDS011;3369;49.906;8.598;2023-04-30T00:41:33;5.53;;;5.13;;
6665;SDS011;3369;49.906;8.598;2023-04-30T00:43:59;5.17;;;4.67;;
6665;SDS011;3369;49.906;8.598;2023-04-30T00:46:26;6.10;;;5.50;;
6665;SDS011;3369;49.906;8.598;2023-04-30T00:48:52;6.03;;;5.53;;
6665;SDS011;3369;49.906;8.598;2023-04-30T00:51:18;5.77;;;5.27;;
6665;SDS011;3369;49.906;8.598;2023-04-30T00:53:44;5.93;;;5.43;;
6665;SDS011;3369;49.906;8.598;2023-04-30T00:56:10;5.53;;;5.03;;
6665;SDS011;3369;49.906;8.598;2023-04-30T00:58:40;5.10;;;4.70;;
6665;SDS011;3369;49.906;8.598;2023-04-30T01:01:05;5.60;;;5.20;;
6665;SDS011;3369;49.906;8.598;2023-04-30T01:03:31;5.00;;;4.60;;
6665;SDS011;3369;49.906;8.598;2023-04-30T01:05:59;5.00;;;4.60;;
6665;SDS011;3369;49.906;8.598;2023-04-30T01:29:33;7.57;;;6.87;;
6665;SDS011;3369;49.906;8.598;2023-04-30T01:32:01;6.20;;;5.70;;
6665;SDS011;3369;49.906;8.598;2023-04-30T01:34:27;6.30;;;5.70;;
6665;SDS011;3369;49.906;8.598;2023-04-30T01:47:48;6.50;;;5.90;;
6665;SDS011;3369;49.906;8.598;2023-04-30T01:50:40;6.40;;;5.80;;
6665;SDS011;3369;49.906;8.598;2023-04-30T01:53:23;7.23;;;6.53;;
6665;SDS011;3369;49.906;8.598;2023-04-30T01:56:01;6.37;;;5.77;;
6665;SDS011;3369;49.906;8.598;2023-04-30T01:58:28;6.97;;;6.30;;
6665;SDS011;3369;49.906;8.598;2023-04-30T02:00:54;6.80;;;6.20;;
6665;SDS011;3369;49.906;8.598;2023-04-30T02:03:20;6.47;;;5.87;;
6665;SDS011;3369;49.906;8.598;2023-04-30T02:05:46;6.77;;;6.10;;
6665;SDS011;3369;49.906;8.598;2023-04-30T02:08:12;6.53;;;5.93;;
6665;SDS011;3369;49.906;8.598;2023-04-30T02:10:38;6.73;;;6.03;;
6665;SDS011;3369;49.906;8.598;2023-04-30T02:13:04;7.50;;;6.37;;
6665;SDS011;3369;49.906;8.598;2023-04-30T02:15:29;6.47;;;5.87;;
6665;SDS011;3369;49.906;8.598;2023-04-30T02:17:55;6.80;;;6.20;;
6665;SDS011;3369;49.906;8.598;2023-04-30T02:20:21;7.10;;;6.43;;
6665;SDS011;3369;49.906;8.598;2023-04-30T02:22:46;9.97;;;7.03;;
6665;SDS011;3369;49.906;8.598;2023-04-30T02:25:12;7.27;;;6.57;;
6665;SDS011;3369;49.906;8.598;2023-04-30T02:27:38;6.83;;;6.23;;
6665;SDS011;3369;49.906;8.598;2023-04-30T02:30:04;7.00;;;6.40;;
6665;SDS011;3369;49.906;8.598;2023-04-30T02:32:31;7.77;;;6.97;;
6665;SDS011;3369;49.906;8.598;2023-04-30T02:34:57;8.43;;;7.63;;
6665;SDS011;3369;49.906;8.598;2023-04-30T02:37:23;9.13;;;8.33;;
6665;SDS011;3369;49.906;8.598;2023-04-30T02:39:48;9.13;;;8.10;;
6665;SDS011;3369;49.906;8.598;2023-04-30T02:42:14;10.80;;;8.63;;
6665;SDS011;3369;49.906;8.598;2023-04-30T02:44:40;10.23;;;9.23;;
6665;SDS011;3369;49.906;8.598;2023-04-30T02:47:06;9.37;;;8.53;;
6665;SDS011;3369;49.906;8.598;2023-04-30T02:49:32;10.13;;;9.17;;
6665;SDS011;3369;49.906;8.598;2023-04-30T02:51:57;9.40;;;8.50;;
6665;SDS011;3369;49.906;8.598;2023-04-30T02:54:23;10.00;;;9.10;;
6665;SDS011;3369;49.906;8.598;2023-04-30T02:56:49;10.87;;;9.87;;
6665;SDS011;3369;49.906;8.598;2023-04-30T02:59:14;11.30;;;10.10;;
6665;SDS011;3369;49.906;8.598;2023-04-30T03:01:40;11.67;;;10.47;;
6665;SDS011;3369;49.906;8.598;2023-04-30T03:04:06;11.00;;;10.00;;
6665;SDS011;3369;49.906;8.598;2023-04-30T03:06:31;10.87;;;9.87;;
6665;SDS011;3369;49.906;8.598;2023-04-30T03:08:58;9.90;;;9.00;;
6665;SDS011;3369;49.906;8.598;2023-04-30T03:11:24;9.33;;;8.50;;
6665;SDS011;3369;49.906;8.598;2023-04-30T03:13:50;9.40;;;8.50;;
6665;SDS011;3369;49.906;8.598;2023-04-30T03:16:16;12.20;;;11.00;;
6665;SDS011;3369;49.906;8.598;2023-04-30T03:18:45;11.73;;;10.53;;
6665;SDS011;3369;49.906;8.598;2023-04-30T03:21:11;12.27;;;11.17;;
6665;SDS011;3369;49.906;8.598;2023-04-30T03:23:37;13.30;;;11.93;;
6665;SDS011;3369;49.906;8.598;2023-04-30T03:26:03;11.20;;;10.07;;
6665;SDS011;3369;49.906;8.598;2023-04-30T03:28:29;13.60;;;12.20;;
6665;SDS011;3369;49.906;8.598;2023-04-30T03:30:54;10.40;;;9.17;;
6665;SDS011;3369;49.906;8.598;2023-04-30T03:33:20;10.77;;;9.67;;
6665;SDS011;3369;49.906;8.598;2023-04-30T03:35:46;10.20;;;9.20;;
6665;SDS011;3369;49.906;8.598;2023-04-30T03:38:13;10.07;;;9.17;;
6665;SDS011;3369;49.906;8.598;2023-04-30T03:40:38;10.20;;;9.03;;
6665;SDS011;3369;49.906;8.598;2023-04-30T03:43:04;9.97;;;8.93;;
6665;SDS011;3369;49.906;8.598;2023-04-30T03:45:29;10.50;;;9.50;;
6665;SDS011;3369;49.906;8.598;2023-04-30T03:47:55;11.00;;;10.00;;
6665;SDS011;3369;49.906;8.598;2023-04-30T03:50:21;10.53;;;9.53;;
6665;SDS011;3369;49.906;8.598;2023-04-30T03:52:47;9.57;;;8.67;;
6665;SDS011;3369;49.906;8.598;2023-04-30T03:55:12;10.93;;;8.97;;
6665;SDS011;3369;49.906;8.598;2023-04-30T03:57:38;10.40;;;9.30;;
6665;SDS011;3369;49.906;8.598;2023-04-30T04:00:07;10.17;;;9.10;;
6665;SDS011;3369;49.906;8.598;2023-04-30T04:02:37;8.93;;;8.03;;
6665;SDS011;3369;49.906;8.598;2023-04-30T04:05:03;10.40;;;9.13;;
6665;SDS011;3369;49.906;8.598;2023-04-30T04:07:29;10.43;;;9.43;;
6665;SDS011;3369;49.906;8.598;2023-04-30T04:09:55;10.17;;;9.07;;
6665;SDS011;3369;49.906;8.598;2023-04-30T04:12:21;9.73;;;8.73;;
6665;SDS011;3369;49.906;8.598;2023-04-30T04:14:47;9.80;;;8.90;;
6665;SDS011;3369;49.906;8.598;2023-04-30T04:17:12;10.87;;;8.50;;
6665;SDS011;3369;49.906;8.598;2023-04-30T04:19:38;10.43;;;8.60;;
6665;SDS011;3369;49.906;8.598;2023-04-30T04:22:04;9.27;;;8.37;;
6665;SDS011;3369;49.906;8.598;2023-04-30T04:24:30;9.30;;;8.40;;
6665;SDS011;3369;49.906;8.598;2023-04-30T04:26:55;9.00;;;8.13;;
6665;SDS011;3369;49.906;8.598;2023-04-30T04:29:22;9.03;;;8.23;;
6665;SDS011;3369;49.906;8.598;2023-04-30T04:31:47;8.77;;;7.87;;
6665;SDS011;3369;49.906;8.598;2023-04-30T04:34:15;9.33;;;8.53;;
6665;SDS011;3369;49.906;8.598;2023-04-30T04:36:40;9.93;;;9.03;;
6665;SDS011;3369;49.906;8.598;2023-04-30T04:39:07;10.53;;;9.43;;
6665;SDS011;3369;49.906;8.598;2023-04-30T04:41:32;10.60;;;9.53;;
6665;SDS011;3369;49.906;8.598;2023-04-30T04:43:59;10.80;;;9.70;;
6665;SDS011;3369;49.906;8.598;2023-04-30T04:46:26;10.33;;;9.30;;
6665;SDS011;3369;49.906;8.598;2023-04-30T04:48:52;10.37;;;9.20;;
6665;SDS011;3369;49.906;8.598;2023-04-30T04:51:18;10.50;;;9.40;;
6665;SDS011;3369;49.906;8.598;2023-04-30T04:53:44;11.90;;;10.17;;
6665;SDS011;3369;49.906;8.598;2023-04-30T04:56:09;10.90;;;9.77;;
6665;SDS011;3369;49.906;8.598;2023-04-30T04:58:35;10.00;;;9.00;;
6665;SDS011;3369;49.906;8.598;2023-04-30T05:01:00;9.43;;;8.53;;
6665;SDS011;3369;49.906;8.598;2023-04-30T05:03:27;10.60;;;9.60;;
6665;SDS011;3369;49.906;8.598;2023-04-30T05:05:53;10.80;;;9.00;;
6665;SDS011;3369;49.906;8.598;2023-04-30T05:08:19;10.67;;;9.60;;
6665;SDS011;3369;49.906;8.598;2023-04-30T05:10:44;9.87;;;8.87;;
6665;SDS011;3369;49.906;8.598;2023-04-30T05:13:10;9.50;;;8.60;;
6665;SDS011;3369;49.906;8.598;2023-04-30T05:15:36;9.30;;;8.40;;
6665;SDS011;3369;49.906;8.598;2023-04-30T05:18:02;9.97;;;9.07;;
6665;SDS011;3369;49.906;8.598;2023-04-30T05:20:27;10.57;;;9.57;;
6665;SDS011;3369;49.906;8.598;2023-04-30T05:22:53;11.50;;;10.33;;
6665;SDS011;3369;49.906;8.598;2023-04-30T05:25:18;9.67;;;8.77;;
6665;SDS011;3369;49.906;8.598;2023-04-30T05:27:44;9.00;;;8.10;;
6665;SDS011;3369;49.906;8.598;2023-04-30T05:30:10;11.43;;;9.50;;
6665;SDS011;3369;49.906;8.598;2023-04-30T05:32:36;9.97;;;8.87;;
6665;SDS011;3369;49.906;8.598;2023-04-30T05:35:01;10.20;;;9.30;;
6665;SDS011;3369;49.906;8.598;2023-04-30T05:37:27;9.67;;;8.77;;
6665;SDS011;3369;49.906;8.598;2023-04-30T05:39:53;10.40;;;9.40;;
6665;SDS011;3369;49.906;8.598;2023-04-30T05:42:19;10.50;;;9.50;;
6665;SDS011;3369;49.906;8.598;2023-04-30T05:44:45;10.63;;;9.63;;
6665;SDS011;3369;49.906;8.598;2023-04-30T05:47:10;9.87;;;8.87;;
6665;SDS011;3369;49.906;8.598;2023-04-30T05:49:36;8.97;;;8.07;;
6665;SDS011;3369;49.906;8.598;2023-04-30T05:52:02;10.40;;;9.30;;
6665;SDS011;3369;49.906;8.598;2023-04-30T05:54:28;9.37;;;8.17;;
6665;SDS011;3369;49.906;8.598;2023-04-30T05:56:54;9.90;;;8.90;;
6665;SDS011;3369;49.906;8.598;2023-04-30T05:59:19;9.97;;;8.97;;
6665;SDS011;3369;49.906;8.598;2023-04-30T06:01:45;9.63;;;8.67;;
6665;SDS011;3369;49.906;8.598;2023-04-30T06:04:10;10.10;;;9.03;;
6665;SDS011;3369;49.906;8.598;2023-04-30T06:06:36;10.13;;;9.13;;
6665;SDS011;3369;49.906;8.598;2023-04-30T06:09:02;9.73;;;8.77;;
6665;SDS011;3369;49.906;8.598;2023-04-30T06:11:28;9.93;;;8.93;;
6665;SDS011;3369;49.906;8.598;2023-04-30T06:13:55;9.53;;;8.67;;
6665;SDS011;3369;49.906;8.598;2023-04-30T06:16:20;9.20;;;8.30;;
6665;SDS011;3369;49.906;8.598;2023-04-30T06:18:47;10.13;;;9.13;;
6665;SDS011;3369;49.906;8.598;2023-04-30T06:21:12;10.27;;;9.23;;
6665;SDS011;3369;49.906;8.598;2023-04-30T06:23:38;8.67;;;7.87;;
6665;SDS011;3369;49.906;8.598;2023-04-30T06:26:04;7.87;;;7.07;;
6665;SDS011;3369;49.906;8.598;2023-04-30T06:28:29;6.90;;;6.37;;
6665;SDS011;3369;49.906;8.598;2023-04-30T06:30:55;7.47;;;6.80;;
6665;SDS011;3369;49.906;8.598;2023-04-30T06:33:21;7.90;;;7.13;;
6665;SDS011;3369;49.906;8.598;2023-04-30T06:35:46;6.83;;;6.30;;
6665;SDS011;3369;49.906;8.598;2023-04-30T06:38:14;7.27;;;6.57;;
6665;SDS011;3369;49.906;8.598;2023-04-30T06:40:42;7.10;;;6.50;;
6665;SDS011;3369;49.906;8.598;2023-04-30T06:43:08;6.13;;;5.53;;
6665;SDS011;3369;49.906;8.598;2023-04-30T06:45:33;6.37;;;5.43;;
6665;SDS011;3369;49.906;8.598;2023-04-30T06:47:59;5.37;;;4.97;;
6665;SDS011;3369;49.906;8.598;2023-04-30T06:50:25;6.27;;;5.13;;
6665;SDS011;3369;49.906;8.598;2023-04-30T07:13:07;4.60;;;4.20;;
6665;SDS011;3369;49.906;8.598;2023-04-30T07:15:32;4.93;;;4.23;;
6665;SDS011;3369;49.906;8.598;2023-04-30T07:17:58;3.87;;;3.57;;
6665;SDS011;3369;49.906;8.598;2023-04-30T07:20:24;4.63;;;4.23;;
6665;SDS011;3369;49.906;8.598;2023-04-30T07:22:50;4.30;;;4.00;;
6665;SDS011;3369;49.906;8.598;2023-04-30T07:25:15;5.07;;;4.60;;
6665;SDS011;3369;49.906;8.598;2023-04-30T07:27:41;4.33;;;3.93;;
6665;SDS011;3369;49.906;8.598;2023-04-30T07:30:07;3.33;;;3.13;;
6665;SDS011;3369;49.906;8.598;2023-04-30T07:32:35;3.87;;;3.57;;
6665;SDS011;3369;49.906;8.598;2023-04-30T07:35:03;4.57;;;4.17;;
6665;SDS011;3369;49.906;8.598;2023-04-30T07:37:29;4.10;;;3.70;;
6665;SDS011;3369;49.906;8.598;2023-04-30T07:39:54;3.90;;;3.30;;
6665;SDS011;3369;49.906;8.598;2023-04-30T07:42:20;3.00;;;2.80;;
6665;SDS011;3369;49.906;8.598;2023-04-30T07:44:46;3.80;;;3.07;;
6665;SDS011;3369;49.906;8.598;2023-04-30T07:47:12;2.93;;;2.73;;
6665;SDS011;3369;49.906;8.598;2023-04-30T07:49:38;3.20;;;2.90;;
6665;SDS011;3369;49.906;8.598;2023-04-30T07:52:04;4.10;;;3.80;;
6665;SDS011;3369;49.906;8.598;2023-04-30T07:54:30;3.40;;;3.03;;
6665;SDS011;3369;49.906;8.598;2023-04-30T07:56:55;4.73;;;4.07;;
6665;SDS011;3369;49.906;8.598;2023-04-30T07:59:21;3.43;;;2.87;;
6665;SDS011;3369;49.906;8.598;2023-04-30T08:01:48;3.53;;;3.23;;
6665;SDS011;3369;49.906;8.598;2023-04-30T08:04:15;4.00;;;3.70;;
6665;SDS011;3369;49.906;8.598;2023-04-30T08:06:40;3.73;;;3.10;;
6665;SDS011;3369;49.906;8.598;2023-04-30T08:09:06;2.87;;;2.60;;
6665;SDS011;3369;49.906;8.598;2023-04-30T08:11:32;3.03;;;2.67;;
6665;SDS011;3369;49.906;8.598;2023-04-30T08:13:58;3.13;;;2.90;;
6665;SDS011;3369;49.906;8.598;2023-04-30T08:16:24;2.50;;;2.30;;
6665;SDS011;3369;49.906;8.598;2023-04-30T08:18:49;2.80;;;2.60;;
6665;SDS011;3369;49.906;8.598;2023-04-30T08:21:15;5.40;;;2.97;;
6665;SDS011;3369;49.906;8.598;2023-04-30T08:23:42;2.63;;;2.43;;
6665;SDS011;3369;49.906;8.598;2023-04-30T08:26:08;3.07;;;2.57;;
6665;SDS011;3369;49.906;8.598;2023-04-30T08:28:33;3.00;;;2.37;;
6665;SDS011;3369;49.906;8.598;2023-04-30T08:30:59;3.57;;;2.60;;
6665;SDS011;3369;49.906;8.598;2023-04-30T08:33:25;2.23;;;1.90;;
6665;SDS011;3369;49.906;8.598;2023-04-30T08:35:50;2.20;;;2.00;;
6665;SDS011;3369;49.906;8.598;2023-04-30T08:38:16;2.40;;;2.20;;
6665;SDS011;3369;49.906;8.598;2023-04-30T08:40:42;2.43;;;2.20;;
6665;SDS011;3369;49.906;8.598;2023-04-30T08:43:19;1.90;;;1.70;;
6665;SDS011;3369;49.906;8.598;2023-04-30T08:45:45;1.73;;;1.53;;
6665;SDS011;3369;49.906;8.598;2023-04-30T08:48:12;2.10;;;1.90;;
6665;SDS011;3369;49.906;8.598;2023-04-30T08:50:40;4.23;;;2.03;;
6665;SDS011;3369;49.906;8.598;2023-04-30T08:53:09;1.57;;;1.47;;
6665;SDS011;3369;49.906;8.598;2023-04-30T08:55:35;1.70;;;1.57;;
6665;SDS011;3369;49.906;8.598;2023-04-30T08:58:03;2.30;;;1.80;;
6665;SDS011;3369;49.906;8.598;2023-04-30T09:00:30;1.93;;;1.80;;
6665;SDS011;3369;49.906;8.598;2023-04-30T09:02:57;2.37;;;1.60;;
6665;SDS011;3369;49.906;8.598;2023-04-30T09:05:24;3.57;;;1.70;;
6665;SDS011;3369;49.906;8.598;2023-04-30T09:07:50;1.60;;;1.50;;
6665;SDS011;3369;49.906;8.598;2023-04-30T09:10:16;2.03;;;1.77;;
6665;SDS011;3369;49.906;8.598;2023-04-30T09:12:56;1.60;;;1.50;;
6665;SDS011;3369;49.906;8.598;2023-04-30T09:15:23;1.87;;;1.43;;
6665;SDS011;3369;49.906;8.598;2023-04-30T09:17:49;1.33;;;1.23;;
6665;SDS011;3369;49.906;8.598;2023-04-30T09:20:15;1.50;;;1.40;;
6665;SDS011;3369;49.906;8.598;2023-04-30T09:22:42;1.20;;;1.20;;
6665;SDS011;3369;49.906;8.598;2023-04-30T09:25:08;1.30;;;1.20;;
6665;SDS011;3369;49.906;8.598;2023-04-30T09:27:35;1.93;;;1.30;;
6665;SDS011;3369;49.906;8.598;2023-04-30T09:30:00;2.10;;;1.33;;
6665;SDS011;3369;49.906;8.598;2023-04-30T09:32:26;1.50;;;1.40;;
6665;SDS011;3369;49.906;8.598;2023-04-30T09:34:53;1.00;;;1.00;;
6665;SDS011;3369;49.906;8.598;2023-04-30T09:37:19;3.13;;;1.50;;
6665;SDS011;3369;49.906;8.598;2023-04-30T09:39:46;1.80;;;1.17;;
6665;SDS011;3369;49.906;8.598;2023-04-30T09:42:13;1.07;;;1.00;;
6665;SDS011;3369;49.906;8.598;2023-04-30T09:44:39;1.00;;;0.90;;
6665;SDS011;3369;49.906;8.598;2023-04-30T09:47:15;1.30;;;1.20;;
6665;SDS011;3369;49.906;8.598;2023-04-30T09:49:49;1.00;;;1.00;;
6665;SDS011;3369;49.906;8.598;2023-04-30T09:52:18;1.07;;;1.00;;
6665;SDS011;3369;49.906;8.598;2023-04-30T09:54:45;0.90;;;0.90;;
6665;SDS011;3369;49.906;8.598;2023-04-30T09:57:12;0.90;;;0.90;;
6665;SDS011;3369;49.906;8.598;2023-04-30T09:59:42;1.70;;;1.17;;
6665;SDS011;3369;49.906;8.598;2023-04-30T10:02:10;1.50;;;1.00;;
6665;SDS011;3369;49.906;8.598;2023-04-30T10:04:41;1.10;;;1.00;;
6665;SDS011;3369;49.906;8.598;2023-04-30T10:07:08;1.17;;;1.07;;
6665;SDS011;3369;49.906;8.598;2023-04-30T10:09:56;1.30;;;1.20;;
6665;SDS011;3369;49.906;8.598;2023-04-30T10:12:24;1.13;;;0.83;;
6665;SDS011;3369;49.906;8.598;2023-04-30T10:14:54;1.00;;;1.00;;
6665;SDS011;3369;49.906;8.598;2023-04-30T10:17:26;1.03;;;1.00;;
6665;SDS011;3369;49.906;8.598;2023-04-30T10:19:57;0.80;;;0.80;;
6665;SDS011;3369;49.906;8.598;2023-04-30T10:22:29;1.00;;;0.90;;
6665;SDS011;3369;49.906;8.598;2023-04-30T10:24:56;0.83;;;0.80;;
6665;SDS011;3369;49.906;8.598;2023-04-30T10:27:23;2.08;;;1.00;;
6665;SDS011;3369;49.906;8.598;2023-04-30T10:29:48;0.80;;;0.70;;
6665;SDS011;3369;49.906;8.598;2023-04-30T10:32:15;1.00;;;0.90;;
6665;SDS011;3369;49.906;8.598;2023-04-30T10:40:37;0.90;;;0.90;;
6665;SDS011;3369;49.906;8.598;2023-04-30T10:43:02;0.70;;;0.70;;
6665;SDS011;3369;49.906;8.598;2023-04-30T10:45:35;1.23;;;0.90;;
6665;SDS011;3369;49.906;8.598;2023-04-30T10:48:02;0.80;;;0.80;;
6665;SDS011;3369;49.906;8.598;2023-04-30T10:50:29;0.87;;;0.87;;
6665;SDS011;3369;49.906;8.598;2023-04-30T10:53:01;1.50;;;0.80;;
6665;SDS011;3369;49.906;8.598;2023-04-30T10:55:28;0.90;;;0.90;;
6665;SDS011;3369;49.906;8.598;2023-04-30T10:57:56;0.87;;;0.87;;
6665;SDS011;3369;49.906;8.598;2023-04-30T11:00:26;1.00;;;0.90;;
6665;SDS011;3369;49.906;8.598;2023-04-30T11:02:57;0.90;;;0.90;;
6665;SDS011;3369;49.906;8.598;2023-04-30T11:05:39;2.30;;;0.80;;
6665;SDS011;3369;49.906;8.598;2023-04-30T11:08:05;2.13;;;0.90;;
6665;SDS011;3369;49.906;8.598;2023-04-30T11:10:35;0.80;;;0.80;;
6665;SDS011;3369;49.906;8.598;2023-04-30T11:13:04;1.00;;;0.90;;
6665;SDS011;3369;49.906;8.598;2023-04-30T11:15:33;0.70;;;0.70;;
6665;SDS011;3369;49.906;8.598;2023-04-30T11:18:04;0.90;;;0.90;;
6665;SDS011;3369;49.906;8.598;2023-04-30T11:20:32;0.93;;;0.87;;
6665;SDS011;3369;49.906;8.598;2023-04-30T11:23:06;0.67;;;0.67;;
6665;SDS011;3369;49.906;8.598;2023-04-30T11:25:45;0.80;;;0.77;;
6665;SDS011;3369;49.906;8.598;2023-04-30T11:28:16;0.80;;;0.80;;
6665;SDS011;3369;49.906;8.598;2023-04-30T11:30:49;0.80;;;0.80;;
6665;SDS011;3369;49.906;8.598;2023-04-30T11:33:15;0.77;;;0.77;;
6665;SDS011;3369;49.906;8.598;2023-04-30T11:35:42;0.60;;;0.60;;
6665;SDS011;3369;49.906;8.598;2023-04-30T11:38:08;2.10;;;0.80;;
6665;SDS011;3369;49.906;8.598;2023-04-30T11:40:36;0.77;;;0.73;;
6665;SDS011;3369;49.906;8.598;2023-04-30T11:43:02;0.93;;;0.70;;
6665;SDS011;3369;49.906;8.598;2023-04-30T11:45:28;0.90;;;0.90;;
6665;SDS011;3369;49.906;8.598;2023-04-30T11:47:54;0.70;;;0.70;;
6665;SDS011;3369;49.906;8.598;2023-04-30T11:50:25;0.70;;;0.70;;
6665;SDS011;3369;49.906;8.598;2023-04-30T11:52:56;0.60;;;0.60;;
6665;SDS011;3369;49.906;8.598;2023-04-30T11:55:25;0.67;;;0.67;;
6665;SDS011;3369;49.906;8.598;2023-04-30T11:57:53;0.60;;;0.60;;
6665;SDS011;3369;49.906;8.598;2023-04-30T12:00:26;0.80;;;0.80;;
6665;SDS011;3369;49.906;8.598;2023-04-30T12:02:54;0.60;;;0.60;;
6665;SDS011;3369;49.906;8.598;2023-04-30T12:05:22;0.50;;;0.50;;
6665;SDS011;3369;49.906;8.598;2023-04-30T12:08:09;0.63;;;0.63;;
6665;SDS011;3369;49.906;8.598;2023-04-30T12:10:35;0.60;;;0.60;;
6665;SDS011;3369;49.906;8.598;2023-04-30T12:13:01;0.77;;;0.77;;
6665;SDS011;3369;49.906;8.598;2023-04-30T12:15:27;0.40;;;0.40;;
6665;SDS011;3369;49.906;8.598;2023-04-30T12:17:59;0.60;;;0.60;;
6665;SDS011;3369;49.906;8.598;2023-04-30T12:20:37;0.57;;;0.57;;
6665;SDS011;3369;49.906;8.598;2023-04-30T12:23:03;1.10;;;0.90;;
6665;SDS011;3369;49.906;8.598;2023-04-30T12:25:29;2.13;;;0.70;;
6665;SDS011;3369;49.906;8.598;2023-04-30T12:27:57;1.55;;;0.77;;
6665;SDS011;3369;49.906;8.598;2023-04-30T12:30:24;0.93;;;0.50;;
6665;SDS011;3369;49.906;8.598;2023-04-30T12:32:56;0.57;;;0.57;;
6665;SDS011;3369;49.906;8.598;2023-04-30T12:35:22;0.97;;;0.87;;
6665;SDS011;3369;49.906;8.598;2023-04-30T12:37:52;0.50;;;0.50;;
6665;SDS011;3369;49.906;8.598;2023-04-30T12:40:26;0.93;;;0.70;;
6665;SDS011;3369;49.906;8.598;2023-04-30T12:42:58;0.60;;;0.60;;
6665;SDS011;3369;49.906;8.598;2023-04-30T12:45:43;1.80;;;0.60;;
6665;SDS011;3369;49.906;8.598;2023-04-30T12:48:13;1.53;;;0.50;;
6665;SDS011;3369;49.906;8.598;2023-04-30T12:50:39;1.17;;;0.60;;
6665;SDS011;3369;49.906;8.598;2023-04-30T12:53:05;0.50;;;0.50;;
6665;SDS011;3369;49.906;8.598;2023-04-30T12:55:32;0.73;;;0.70;;
6665;SDS011;3369;49.906;8.598;2023-04-30T12:58:08;0.70;;;0.70;;
6665;SDS011;3369;49.906;8.598;2023-04-30T13:00:45;0.73;;;0.70;;
6665;SDS011;3369;49.906;8.598;2023-04-30T13:03:12;3.03;;;1.73;;
6665;SDS011;3369;49.906;8.598;2023-04-30T13:05:39;2.17;;;1.10;;
6665;SDS011;3369;49.906;8.598;2023-04-30T13:29:40;0.63;;;0.50;;
6665;SDS011;3369;49.906;8.598;2023-04-30T13:32:06;0.40;;;0.40;;
6665;SDS011;3369;49.906;8.598;2023-04-30T13:34:32;0.40;;;0.40;;
6665;SDS011;3369;49.906;8.598;2023-04-30T13:36:57;0.45;;;0.45;;
6665;SDS011;3369;49.906;8.598;2023-04-30T13:39:23;1.10;;;0.60;;
6665;SDS011;3369;49.906;8.598;2023-04-30T13:41:49;0.93;;;0.68;;
6665;SDS011;3369;49.906;8.598;2023-04-30T13:44:14;1.03;;;0.93;;
6665;SDS011;3369;49.906;8.598;2023-04-30T13:46:41;0.50;;;0.50;;
6665;SDS011;3369;49.906;8.598;2023-04-30T13:49:06;0.47;;;0.47;;
6665;SDS011;3369;49.906;8.598;2023-04-30T13:51:32;0.37;;;0.37;;
6665;SDS011;3369;49.906;8.598;2023-04-30T13:53:57;0.43;;;0.43;;
6665;SDS011;3369;49.906;8.598;2023-04-30T13:56:23;0.70;;;0.70;;
6665;SDS011;3369;49.906;8.598;2023-04-30T13:58:49;1.70;;;0.67;;
6665;SDS011;3369;49.906;8.598;2023-04-30T14:01:15;0.50;;;0.50;;
6665;SDS011;3369;49.906;8.598;2023-04-30T14:03:40;0.50;;;0.50;;
6665;SDS011;3369;49.906;8.598;2023-04-30T14:06:06;0.40;;;0.40;;
6665;SDS011;3369;49.906;8.598;2023-04-30T14:08:32;0.40;;;0.40;;
6665;SDS011;3369;49.906;8.598;2023-04-30T14:10:57;1.90;;;0.30;;
6665;SDS011;3369;49.906;8.598;2023-04-30T14:13:23;0.40;;;0.40;;
6665;SDS011;3369;49.906;8.598;2023-04-30T14:15:48;0.40;;;0.40;;
6665;SDS011;3369;49.906;8.598;2023-04-30T14:18:14;0.37;;;0.37;;
6665;SDS011;3369;49.906;8.598;2023-04-30T14:20:40;0.40;;;0.40;;
6665;SDS011;3369;49.906;8.598;2023-04-30T14:23:05;0.60;;;0.60;;
6665;SDS011;3369;49.906;8.598;2023-04-30T14:25:32;0.40;;;0.40;;
6665;SDS011;3369;49.906;8.598;2023-04-30T14:27:58;0.40;;;0.40;;
6665;SDS011;3369;49.906;8.598;2023-04-30T14:30:23;0.43;;;0.43;;
6665;SDS011;3369;49.906;8.598;2023-04-30T14:32:49;0.30;;;0.30;;
6665;SDS011;3369;49.906;8.598;2023-04-30T14:35:15;0.80;;;0.40;;
6665;SDS011;3369;49.906;8.598;2023-04-30T14:37:41;2.13;;;0.73;;
6665;SDS011;3369;49.906;8.598;2023-04-30T14:40:06;1.30;;;0.40;;
6665;SDS011;3369;49.906;8.598;2023-04-30T14:42:33;0.40;;;0.40;;
6665;SDS011;3369;49.906;8.598;2023-04-30T14:44:59;0.30;;;0.30;;
6665;SDS011;3369;49.906;8.598;2023-04-30T14:47:24;0.47;;;0.47;;
6665;SDS011;3369;49.906;8.598;2023-04-30T14:49:51;0.40;;;0.40;;
6665;SDS011;3369;49.906;8.598;2023-04-30T14:52:17;0.40;;;0.40;;
6665;SDS011;3369;49.906;8.598;2023-04-30T14:54:44;0.50;;;0.50;;
6665;SDS011;3369;49.906;8.598;2023-04-30T14:57:09;0.40;;;0.40;;
6665;SDS011;3369;49.906;8.598;2023-04-30T14:59:35;0.40;;;0.40;;
6665;SDS011;3369;49.906;8.598;2023-04-30T15:02:03;0.50;;;0.40;;
6665;SDS011;3369;49.906;8.598;2023-04-30T15:04:29;0.40;;;0.40;;
6665;SDS011;3369;49.906;8.598;2023-04-30T15:06:56;0.30;;;0.30;;
6665;SDS011;3369;49.906;8.598;2023-04-30T15:09:21;0.30;;;0.30;;
6665;SDS011;3369;49.906;8.598;2023-04-30T15:11:47;0.40;;;0.40;;
6665;SDS011;3369;49.906;8.598;2023-04-30T15:14:12;1.13;;;0.60;;
6665;SDS011;3369;49.906;8.598;2023-04-30T15:16:40;0.53;;;0.53;;
6665;SDS011;3369;49.906;8.598;2023-04-30T15:19:06;0.43;;;0.43;;
6665;SDS011;3369;49.906;8.598;2023-04-30T15:21:32;0.53;;;0.53;;
6665;SDS011;3369;49.906;8.598;2023-04-30T15:23:57;0.43;;;0.40;;
6665;SDS011;3369;49.906;8.598;2023-04-30T15:26:23;0.40;;;0.40;;
6665;SDS011;3369;49.906;8.598;2023-04-30T15:28:49;0.97;;;0.87;;
6665;SDS011;3369;49.906;8.598;2023-04-30T15:31:15;0.80;;;0.80;;
6665;SDS011;3369;49.906;8.598;2023-04-30T15:33:41;0.40;;;0.40;;
6665;SDS011;3369;49.906;8.598;2023-04-30T15:36:07;0.50;;;0.50;;
6665;SDS011;3369;49.906;8.598;2023-04-30T15:38:34;0.50;;;0.50;;
6665;SDS011;3369;49.906;8.598;2023-04-30T15:40:59;0.63;;;0.63;;
6665;SDS011;3369;49.906;8.598;2023-04-30T15:43:25;0.50;;;0.50;;
6665;SDS011;3369;49.906;8.598;2023-04-30T15:45:51;0.57;;;0.57;;
6665;SDS011;3369;49.906;8.598;2023-04-30T15:48:16;0.77;;;0.70;;
6665;SDS011;3369;49.906;8.598;2023-04-30T15:50:42;0.60;;;0.60;;
6665;SDS011;3369;49.906;8.598;2023-04-30T15:53:07;0.50;;;0.50;;
6665;SDS011;3369;49.906;8.598;2023-04-30T15:55:34;0.53;;;0.53;;
6665;SDS011;3369;49.906;8.598;2023-04-30T15:58:00;1.13;;;0.60;;
6665;SDS011;3369;49.906;8.598;2023-04-30T16:00:26;0.60;;;0.60;;
6665;SDS011;3369;49.906;8.598;2023-04-30T16:02:52;0.67;;;0.67;;
6665;SDS011;3369;49.906;8.598;2023-04-30T16:05:18;0.70;;;0.70;;
6665;SDS011;3369;49.906;8.598;2023-04-30T16:07:44;0.40;;;0.40;;
6665;SDS011;3369;49.906;8.598;2023-04-30T16:10:09;0.60;;;0.60;;
6665;SDS011;3369;49.906;8.598;2023-04-30T16:12:35;0.60;;;0.60;;
6665;SDS011;3369;49.906;8.598;2023-04-30T16:15:01;0.50;;;0.50;;
6665;SDS011;3369;49.906;8.598;2023-04-30T16:17:30;0.47;;;0.47;;
6665;SDS011;3369;49.906;8.598;2023-04-30T16:19:56;0.60;;;0.60;;
6665;SDS011;3369;49.906;8.598;2023-04-30T16:22:23;0.97;;;0.67;;
6665;SDS011;3369;49.906;8.598;2023-04-30T16:24:49;1.07;;;0.80;;
6665;SDS011;3369;49.906;8.598;2023-04-30T16:27:14;0.93;;;0.90;;
6665;SDS011;3369;49.906;8.598;2023-04-30T16:29:40;0.70;;;0.70;;